sensor_id;sensor_type;location;lat;lon;timestamp;temperature;humidity
38183;DHT22;23991;52.430;10.586;2022-07-23T00:00:39;17.90;69.60
38183;DHT22;23991;52.430;10.586;2022-07-23T00:03:06;17.90;69.70
38183;DHT22;23991;52.430;10.586;2022-07-23T00:05:31;17.90;69.90
38183;DHT22;23991;52.430;10.586;2022-07-23T00:07:57;17.90;69.70
38183;DHT22;23991;52.430;10.586;2022-07-23T00:10:23;17.80;70.00
38183;DHT22;23991;52.430;10.586;2022-07-23T00:12:48;17.80;70.20
38183;DHT22;23991;52.430;10.586;2022-07-23T00:15:14;17.80;70.70
38183;DHT22;23991;52.430;10.586;2022-07-23T00:17:39;17.80;70.60
38183;DHT22;23991;52.430;10.586;2022-07-23T00:20:05;17.80;70.70
38183;DHT22;23991;52.430;10.586;2022-07-23T00:22:31;17.80;71.10
38183;DHT22;23991;52.430;10.586;2022-07-23T00:24:57;17.70;71.00
38183;DHT22;23991;52.430;10.586;2022-07-23T00:27:23;17.70;70.70
38183;DHT22;23991;52.430;10.586;2022-07-23T00:29:48;17.70;70.80
38183;DHT22;23991;52.430;10.586;2022-07-23T00:32:15;17.60;71.00
38183;DHT22;23991;52.430;10.586;2022-07-23T00:34:40;17.50;71.10
38183;DHT22;23991;52.430;10.586;2022-07-23T00:37:06;17.50;71.10
38183;DHT22;23991;52.430;10.586;2022-07-23T00:39:32;17.50;71.20
38183;DHT22;23991;52.430;10.586;2022-07-23T00:41:57;17.50;71.30
38183;DHT22;23991;52.430;10.586;2022-07-23T00:44:25;17.50;71.20
38183;DHT22;23991;52.430;10.586;2022-07-23T00:46:54;17.40;71.30
38183;DHT22;23991;52.430;10.586;2022-07-23T00:49:30;17.30;71.70
38183;DHT22;23991;52.430;10.586;2022-07-23T00:51:57;17.30;71.70
38183;DHT22;23991;52.430;10.586;2022-07-23T00:54:25;17.30;71.60
38183;DHT22;23991;52.430;10.586;2022-07-23T00:56:51;17.30;71.80
38183;DHT22;23991;52.430;10.586;2022-07-23T00:59:16;17.30;71.90
38183;DHT22;23991;52.430;10.586;2022-07-23T01:01:42;17.30;72.00
38183;DHT22;23991;52.430;10.586;2022-07-23T01:04:09;17.30;72.20
38183;DHT22;23991;52.430;10.586;2022-07-23T01:06:37;17.20;72.10
38183;DHT22;23991;52.430;10.586;2022-07-23T01:09:07;17.20;72.10
38183;DHT22;23991;52.430;10.586;2022-07-23T01:11:34;17.20;72.00
38183;DHT22;23991;52.430;10.586;2022-07-23T01:14:09;17.20;72.10
38183;DHT22;23991;52.430;10.586;2022-07-23T01:16:35;17.20;72.30
38183;DHT22;23991;52.430;10.586;2022-07-23T01:19:01;17.10;72.20
38183;DHT22;23991;52.430;10.586;2022-07-23T01:21:26;17.10;72.30
38183;DHT22;23991;52.430;10.586;2022-07-23T01:23:52;17.10;72.50
38183;DHT22;23991;52.430;10.586;2022-07-23T01:26:18;17.10;72.60
38183;DHT22;23991;52.430;10.586;2022-07-23T01:28:43;17.00;72.30
38183;DHT22;23991;52.430;10.586;2022-07-23T01:31:09;17.00;72.10
38183;DHT22;23991;52.430;10.586;2022-07-23T01:33:34;17.00;72.20
38183;DHT22;23991;52.430;10.586;2022-07-23T01:36:00;17.00;72.30
38183;DHT22;23991;52.430;10.586;2022-07-23T01:38:25;16.90;72.50
38183;DHT22;23991;52.430;10.586;2022-07-23T01:40:51;16.90;72.60
38183;DHT22;23991;52.430;10.586;2022-07-23T01:43:17;16.80;73.00
38183;DHT22;23991;52.430;10.586;2022-07-23T01:45:42;16.80;73.00
38183;DHT22;23991;52.430;10.586;2022-07-23T01:48:09;16.80;72.80
38183;DHT22;23991;52.430;10.586;2022-07-23T01:50:35;16.80;73.00
38183;DHT22;23991;52.430;10.586;2022-07-23T01:53:00;16.80;72.90
38183;DHT22;23991;52.430;10.586;2022-07-23T01:55:26;16.80;72.90
38183;DHT22;23991;52.430;10.586;2022-07-23T01:57:52;16.70;72.70
38183;DHT22;23991;52.430;10.586;2022-07-23T02:00:17;16.70;73.00
38183;DHT22;23991;52.430;10.586;2022-07-23T02:02:43;16.70;73.20
38183;DHT22;23991;52.430;10.586;2022-07-23T02:05:09;16.70;73.20
38183;DHT22;23991;52.430;10.586;2022-07-23T02:07:34;16.70;73.20
38183;DHT22;23991;52.430;10.586;2022-07-23T02:10:00;16.70;73.10
38183;DHT22;23991;52.430;10.586;2022-07-23T02:12:25;16.70;73.20
38183;DHT22;23991;52.430;10.586;2022-07-23T02:14:51;16.70;73.30
38183;DHT22;23991;52.430;10.586;2022-07-23T02:17:16;16.70;73.20
38183;DHT22;23991;52.430;10.586;2022-07-23T02:19:42;16.60;73.30
38183;DHT22;23991;52.430;10.586;2022-07-23T02:22:07;16.60;73.20
38183;DHT22;23991;52.430;10.586;2022-07-23T02:24:33;16.70;73.40
38183;DHT22;23991;52.430;10.586;2022-07-23T02:26:59;16.60;73.40
38183;DHT22;23991;52.430;10.586;2022-07-23T02:29:25;16.50;73.30
38183;DHT22;23991;52.430;10.586;2022-07-23T02:31:50;16.50;73.30
38183;DHT22;23991;52.430;10.586;2022-07-23T02:34:16;16.50;73.20
38183;DHT22;23991;52.430;10.586;2022-07-23T02:36:41;16.50;73.00
38183;DHT22;23991;52.430;10.586;2022-07-23T02:39:07;16.50;73.20
38183;DHT22;23991;52.430;10.586;2022-07-23T02:41:32;16.50;73.20
38183;DHT22;23991;52.430;10.586;2022-07-23T02:43:58;16.50;73.30
38183;DHT22;23991;52.430;10.586;2022-07-23T02:46:23;16.40;73.50
38183;DHT22;23991;52.430;10.586;2022-07-23T02:48:49;16.40;74.50
38183;DHT22;23991;52.430;10.586;2022-07-23T02:51:15;16.40;74.60
38183;DHT22;23991;52.430;10.586;2022-07-23T02:53:40;16.30;74.70
38183;DHT22;23991;52.430;10.586;2022-07-23T02:56:06;16.30;74.50
38183;DHT22;23991;52.430;10.586;2022-07-23T02:58:32;16.30;74.50
38183;DHT22;23991;52.430;10.586;2022-07-23T03:00:57;16.30;74.40
38183;DHT22;23991;52.430;10.586;2022-07-23T03:03:23;16.30;74.30
38183;DHT22;23991;52.430;10.586;2022-07-23T03:05:48;16.30;74.30
38183;DHT22;23991;52.430;10.586;2022-07-23T03:08:14;16.30;74.60
38183;DHT22;23991;52.430;10.586;2022-07-23T03:10:39;16.20;74.70
38183;DHT22;23991;52.430;10.586;2022-07-23T03:13:05;16.20;74.90
38183;DHT22;23991;52.430;10.586;2022-07-23T03:15:30;16.20;74.80
38183;DHT22;23991;52.430;10.586;2022-07-23T03:17:56;16.20;74.50
38183;DHT22;23991;52.430;10.586;2022-07-23T03:20:22;16.20;74.50
38183;DHT22;23991;52.430;10.586;2022-07-23T03:22:47;16.20;74.70
38183;DHT22;23991;52.430;10.586;2022-07-23T03:25:13;16.20;75.00
38183;DHT22;23991;52.430;10.586;2022-07-23T03:27:38;16.20;75.30
38183;DHT22;23991;52.430;10.586;2022-07-23T03:30:04;16.20;75.40
38183;DHT22;23991;52.430;10.586;2022-07-23T03:32:30;16.20;75.40
38183;DHT22;23991;52.430;10.586;2022-07-23T03:34:56;16.20;75.50
38183;DHT22;23991;52.430;10.586;2022-07-23T03:37:22;16.10;75.80
38183;DHT22;23991;52.430;10.586;2022-07-23T03:39:48;16.20;76.00
38183;DHT22;23991;52.430;10.586;2022-07-23T03:42:13;16.10;76.20
38183;DHT22;23991;52.430;10.586;2022-07-23T03:44:39;16.20;76.30
38183;DHT22;23991;52.430;10.586;2022-07-23T03:47:05;16.20;76.40
38183;DHT22;23991;52.430;10.586;2022-07-23T03:49:32;16.20;76.50
38183;DHT22;23991;52.430;10.586;2022-07-23T03:51:58;16.20;76.60
38183;DHT22;23991;52.430;10.586;2022-07-23T03:54:24;16.20;76.50
38183;DHT22;23991;52.430;10.586;2022-07-23T03:56:50;16.20;76.60
38183;DHT22;23991;52.430;10.586;2022-07-23T03:59:15;16.20;76.80
38183;DHT22;23991;52.430;10.586;2022-07-23T04:01:41;16.20;76.80
38183;DHT22;23991;52.430;10.586;2022-07-23T04:04:07;16.20;76.80
38183;DHT22;23991;52.430;10.586;2022-07-23T04:06:34;16.20;76.90
38183;DHT22;23991;52.430;10.586;2022-07-23T04:09:00;16.20;76.90
38183;DHT22;23991;52.430;10.586;2022-07-23T04:11:26;16.30;76.90
38183;DHT22;23991;52.430;10.586;2022-07-23T04:13:51;16.30;76.90
38183;DHT22;23991;52.430;10.586;2022-07-23T04:16:17;16.30;76.90
38183;DHT22;23991;52.430;10.586;2022-07-23T04:18:43;16.30;76.90
38183;DHT22;23991;52.430;10.586;2022-07-23T04:21:08;16.30;76.80
38183;DHT22;23991;52.430;10.586;2022-07-23T04:23:34;16.30;76.60
38183;DHT22;23991;52.430;10.586;2022-07-23T04:25:59;16.40;76.90
38183;DHT22;23991;52.430;10.586;2022-07-23T04:28:25;16.30;77.40
38183;DHT22;23991;52.430;10.586;2022-07-23T04:30:50;16.40;77.40
38183;DHT22;23991;52.430;10.586;2022-07-23T04:33:16;16.40;77.30
38183;DHT22;23991;52.430;10.586;2022-07-23T04:35:42;16.40;77.20
38183;DHT22;23991;52.430;10.586;2022-07-23T04:38:07;16.40;77.20
38183;DHT22;23991;52.430;10.586;2022-07-23T04:40:33;16.40;77.20
38183;DHT22;23991;52.430;10.586;2022-07-23T04:42:58;16.50;77.30
38183;DHT22;23991;52.430;10.586;2022-07-23T04:45:24;16.50;77.30
38183;DHT22;23991;52.430;10.586;2022-07-23T04:47:50;16.60;77.30
38183;DHT22;23991;52.430;10.586;2022-07-23T04:50:16;16.70;77.20
38183;DHT22;23991;52.430;10.586;2022-07-23T04:52:44;16.80;77.50
38183;DHT22;23991;52.430;10.586;2022-07-23T04:55:10;16.80;77.10
38183;DHT22;23991;52.430;10.586;2022-07-23T04:57:36;16.90;76.80
38183;DHT22;23991;52.430;10.586;2022-07-23T05:00:03;16.90;76.60
38183;DHT22;23991;52.430;10.586;2022-07-23T05:02:29;17.00;77.00
38183;DHT22;23991;52.430;10.586;2022-07-23T05:04:55;17.10;76.80
38183;DHT22;23991;52.430;10.586;2022-07-23T05:07:20;17.20;76.90
38183;DHT22;23991;52.430;10.586;2022-07-23T05:09:46;17.20;76.70
38183;DHT22;23991;52.430;10.586;2022-07-23T05:12:12;17.30;76.60
38183;DHT22;23991;52.430;10.586;2022-07-23T05:14:37;17.30;76.30
38183;DHT22;23991;52.430;10.586;2022-07-23T05:17:03;17.40;76.50
38183;DHT22;23991;52.430;10.586;2022-07-23T05:19:28;17.50;76.50
38183;DHT22;23991;52.430;10.586;2022-07-23T05:21:54;17.60;76.00
38183;DHT22;23991;52.430;10.586;2022-07-23T05:24:20;17.70;75.90
38183;DHT22;23991;52.430;10.586;2022-07-23T05:26:45;17.70;75.50
38183;DHT22;23991;52.430;10.586;2022-07-23T05:29:11;17.70;74.90
38183;DHT22;23991;52.430;10.586;2022-07-23T05:31:37;17.80;74.60
38183;DHT22;23991;52.430;10.586;2022-07-23T05:34:02;17.80;74.80
38183;DHT22;23991;52.430;10.586;2022-07-23T05:36:28;17.90;74.70
38183;DHT22;23991;52.430;10.586;2022-07-23T05:38:53;18.00;74.10
38183;DHT22;23991;52.430;10.586;2022-07-23T05:41:19;18.10;73.50
38183;DHT22;23991;52.430;10.586;2022-07-23T05:43:44;18.10;73.40
38183;DHT22;23991;52.430;10.586;2022-07-23T05:46:10;18.20;73.50
38183;DHT22;23991;52.430;10.586;2022-07-23T05:48:36;18.30;73.30
38183;DHT22;23991;52.430;10.586;2022-07-23T05:51:01;18.40;72.70
38183;DHT22;23991;52.430;10.586;2022-07-23T05:53:28;18.40;72.10
38183;DHT22;23991;52.430;10.586;2022-07-23T05:55:54;18.50;71.70
38183;DHT22;23991;52.430;10.586;2022-07-23T05:58:20;18.60;71.50
38183;DHT22;23991;52.430;10.586;2022-07-23T06:00:45;18.80;71.30
38183;DHT22;23991;52.430;10.586;2022-07-23T06:03:11;18.80;71.00
38183;DHT22;23991;52.430;10.586;2022-07-23T06:05:36;18.90;70.60
38183;DHT22;23991;52.430;10.586;2022-07-23T06:08:02;18.90;70.60
38183;DHT22;23991;52.430;10.586;2022-07-23T06:10:28;19.00;70.60
38183;DHT22;23991;52.430;10.586;2022-07-23T06:12:53;19.20;70.10
38183;DHT22;23991;52.430;10.586;2022-07-23T06:15:19;19.30;69.30
38183;DHT22;23991;52.430;10.586;2022-07-23T06:17:44;19.30;69.20
38183;DHT22;23991;52.430;10.586;2022-07-23T06:20:10;19.40;68.80
38183;DHT22;23991;52.430;10.586;2022-07-23T06:22:36;19.70;68.20
38183;DHT22;23991;52.430;10.586;2022-07-23T06:25:02;19.80;67.20
38183;DHT22;23991;52.430;10.586;2022-07-23T06:27:28;20.00;67.20
38183;DHT22;23991;52.430;10.586;2022-07-23T06:29:54;20.10;66.80
38183;DHT22;23991;52.430;10.586;2022-07-23T06:32:19;20.50;65.60
38183;DHT22;23991;52.430;10.586;2022-07-23T06:34:45;20.80;65.10
38183;DHT22;23991;52.430;10.586;2022-07-23T06:37:11;21.10;62.60
38183;DHT22;23991;52.430;10.586;2022-07-23T06:39:37;21.10;62.50
38183;DHT22;23991;52.430;10.586;2022-07-23T06:42:02;21.40;61.10
38183;DHT22;23991;52.430;10.586;2022-07-23T06:44:28;21.60;59.80
38183;DHT22;23991;52.430;10.586;2022-07-23T06:46:54;21.80;59.60
38183;DHT22;23991;52.430;10.586;2022-07-23T06:49:19;22.10;58.40
38183;DHT22;23991;52.430;10.586;2022-07-23T06:51:45;22.10;58.10
38183;DHT22;23991;52.430;10.586;2022-07-23T06:54:11;22.30;58.20
38183;DHT22;23991;52.430;10.586;2022-07-23T06:56:36;22.30;57.80
38183;DHT22;23991;52.430;10.586;2022-07-23T06:59:02;22.30;57.20
38183;DHT22;23991;52.430;10.586;2022-07-23T07:01:28;22.40;56.50
38183;DHT22;23991;52.430;10.586;2022-07-23T07:03:53;22.70;56.00
38183;DHT22;23991;52.430;10.586;2022-07-23T07:06:19;22.90;55.40
38183;DHT22;23991;52.430;10.586;2022-07-23T07:08:45;23.20;54.50
38183;DHT22;23991;52.430;10.586;2022-07-23T07:11:10;23.40;53.80
38183;DHT22;23991;52.430;10.586;2022-07-23T07:13:37;23.60;53.30
38183;DHT22;23991;52.430;10.586;2022-07-23T07:16:04;23.70;52.40
38183;DHT22;23991;52.430;10.586;2022-07-23T07:18:29;23.80;52.40
38183;DHT22;23991;52.430;10.586;2022-07-23T07:20:57;24.00;51.60
38183;DHT22;23991;52.430;10.586;2022-07-23T07:23:23;24.40;50.70
38183;DHT22;23991;52.430;10.586;2022-07-23T07:25:48;24.80;49.10
38183;DHT22;23991;52.430;10.586;2022-07-23T07:28:14;25.10;48.20
38183;DHT22;23991;52.430;10.586;2022-07-23T07:30:39;25.20;47.50
38183;DHT22;23991;52.430;10.586;2022-07-23T07:33:06;25.40;47.20
38183;DHT22;23991;52.430;10.586;2022-07-23T07:35:31;25.80;46.50
38183;DHT22;23991;52.430;10.586;2022-07-23T07:37:59;26.30;45.50
38183;DHT22;23991;52.430;10.586;2022-07-23T07:40:26;26.50;43.60
38183;DHT22;23991;52.430;10.586;2022-07-23T07:42:53;26.70;43.30
38183;DHT22;23991;52.430;10.586;2022-07-23T07:45:23;26.90;42.90
38183;DHT22;23991;52.430;10.586;2022-07-23T07:47:50;26.80;42.50
38183;DHT22;23991;52.430;10.586;2022-07-23T07:50:16;27.30;41.50
38183;DHT22;23991;52.430;10.586;2022-07-23T07:52:41;27.50;41.40
38183;DHT22;23991;52.430;10.586;2022-07-23T07:55:08;27.50;40.70
38183;DHT22;23991;52.430;10.586;2022-07-23T07:57:35;27.50;40.40
38183;DHT22;23991;52.430;10.586;2022-07-23T08:00:00;27.30;41.30
38183;DHT22;23991;52.430;10.586;2022-07-23T08:02:26;27.40;41.20
38183;DHT22;23991;52.430;10.586;2022-07-23T08:04:52;27.70;40.70
38183;DHT22;23991;52.430;10.586;2022-07-23T08:07:18;27.80;40.00
38183;DHT22;23991;52.430;10.586;2022-07-23T08:09:44;27.70;39.80
38183;DHT22;23991;52.430;10.586;2022-07-23T08:12:10;27.60;39.80
38183;DHT22;23991;52.430;10.586;2022-07-23T08:14:35;27.40;40.00
38183;DHT22;23991;52.430;10.586;2022-07-23T08:17:01;26.90;40.20
38183;DHT22;23991;52.430;10.586;2022-07-23T08:19:26;27.00;40.60
38183;DHT22;23991;52.430;10.586;2022-07-23T08:21:52;27.40;39.20
38183;DHT22;23991;52.430;10.586;2022-07-23T08:24:17;28.00;38.90
38183;DHT22;23991;52.430;10.586;2022-07-23T08:26:43;28.10;37.50
38183;DHT22;23991;52.430;10.586;2022-07-23T08:29:09;28.20;37.70
38183;DHT22;23991;52.430;10.586;2022-07-23T08:31:35;28.20;37.80
38183;DHT22;23991;52.430;10.586;2022-07-23T08:34:01;28.10;37.90
38183;DHT22;23991;52.430;10.586;2022-07-23T08:36:28;27.90;38.20
38183;DHT22;23991;52.430;10.586;2022-07-23T08:38:54;28.00;38.20
38183;DHT22;23991;52.430;10.586;2022-07-23T08:41:20;28.40;37.50
38183;DHT22;23991;52.430;10.586;2022-07-23T08:43:46;28.40;37.70
38183;DHT22;23991;52.430;10.586;2022-07-23T08:46:13;28.40;37.10
38183;DHT22;23991;52.430;10.586;2022-07-23T08:48:39;28.30;37.50
38183;DHT22;23991;52.430;10.586;2022-07-23T08:51:06;28.50;37.90
38183;DHT22;23991;52.430;10.586;2022-07-23T08:53:33;28.70;37.10
38183;DHT22;23991;52.430;10.586;2022-07-23T08:56:02;28.90;35.70
38183;DHT22;23991;52.430;10.586;2022-07-23T08:58:29;28.80;35.90
38183;DHT22;23991;52.430;10.586;2022-07-23T09:00:55;28.70;36.10
38183;DHT22;23991;52.430;10.586;2022-07-23T09:03:35;28.90;35.90
38183;DHT22;23991;52.430;10.586;2022-07-23T09:06:02;29.00;36.20
38183;DHT22;23991;52.430;10.586;2022-07-23T09:08:37;29.10;35.80
38183;DHT22;23991;52.430;10.586;2022-07-23T09:11:05;29.30;35.60
38183;DHT22;23991;52.430;10.586;2022-07-23T09:13:53;29.60;35.00
38183;DHT22;23991;52.430;10.586;2022-07-23T09:16:24;29.70;35.00
38183;DHT22;23991;52.430;10.586;2022-07-23T09:18:53;29.80;34.60
38183;DHT22;23991;52.430;10.586;2022-07-23T09:21:22;29.70;34.40
38183;DHT22;23991;52.430;10.586;2022-07-23T09:23:59;30.00;34.50
38183;DHT22;23991;52.430;10.586;2022-07-23T09:26:34;30.40;33.30
38183;DHT22;23991;52.430;10.586;2022-07-23T09:29:04;31.00;32.30
38183;DHT22;23991;52.430;10.586;2022-07-23T09:31:32;31.40;31.40
38183;DHT22;23991;52.430;10.586;2022-07-23T09:34:10;31.70;30.20
38183;DHT22;23991;52.430;10.586;2022-07-23T09:36:36;31.50;29.50
38183;DHT22;23991;52.430;10.586;2022-07-23T09:39:02;31.30;30.50
38183;DHT22;23991;52.430;10.586;2022-07-23T09:41:38;31.30;30.80
38183;DHT22;23991;52.430;10.586;2022-07-23T09:44:08;31.80;30.10
38183;DHT22;23991;52.430;10.586;2022-07-23T09:46:35;32.10;30.40
38183;DHT22;23991;52.430;10.586;2022-07-23T09:49:10;33.00;29.00
38183;DHT22;23991;52.430;10.586;2022-07-23T09:56:51;33.20;27.80
38183;DHT22;23991;52.430;10.586;2022-07-23T09:59:17;32.60;28.30
38183;DHT22;23991;52.430;10.586;2022-07-23T10:01:44;32.30;29.10
38183;DHT22;23991;52.430;10.586;2022-07-23T10:04:14;32.50;28.90
38183;DHT22;23991;52.430;10.586;2022-07-23T10:06:41;32.90;28.40
38183;DHT22;23991;52.430;10.586;2022-07-23T10:09:08;33.40;27.70
38183;DHT22;23991;52.430;10.586;2022-07-23T10:11:37;33.70;27.30
38183;DHT22;23991;52.430;10.586;2022-07-23T10:14:03;33.50;27.70
38183;DHT22;23991;52.430;10.586;2022-07-23T10:16:30;33.20;27.40
38183;DHT22;23991;52.430;10.586;2022-07-23T10:18:56;32.80;28.20
38183;DHT22;23991;52.430;10.586;2022-07-23T10:21:27;32.90;27.90
38183;DHT22;23991;52.430;10.586;2022-07-23T10:27:12;33.20;27.80
38183;DHT22;23991;52.430;10.586;2022-07-23T10:32:18;34.70;26.50
38183;DHT22;23991;52.430;10.586;2022-07-23T10:34:58;35.20;25.70
38183;DHT22;23991;52.430;10.586;2022-07-23T10:37:34;35.40;25.40
38183;DHT22;23991;52.430;10.586;2022-07-23T10:40:18;35.20;25.00
38183;DHT22;23991;52.430;10.586;2022-07-23T10:42:49;34.90;25.40
38183;DHT22;23991;52.430;10.586;2022-07-23T10:45:33;34.30;26.10
38183;DHT22;23991;52.430;10.586;2022-07-23T10:48:18;34.20;26.30
38183;DHT22;23991;52.430;10.586;2022-07-23T10:51:11;35.10;25.40
38183;DHT22;23991;52.430;10.586;2022-07-23T10:53:59;35.50;24.10
38183;DHT22;23991;52.430;10.586;2022-07-23T10:59:18;36.30;23.70
38183;DHT22;23991;52.430;10.586;2022-07-23T11:01:44;36.80;23.20
38183;DHT22;23991;52.430;10.586;2022-07-23T11:04:10;36.80;23.80
38183;DHT22;23991;52.430;10.586;2022-07-23T11:15:07;36.30;24.10
38183;DHT22;23991;52.430;10.586;2022-07-23T11:17:38;36.90;23.30
38183;DHT22;23991;52.430;10.586;2022-07-23T11:25:10;37.80;22.20
38183;DHT22;23991;52.430;10.586;2022-07-23T11:27:45;38.20;22.00
38183;DHT22;23991;52.430;10.586;2022-07-23T11:35:33;37.20;22.30
38183;DHT22;23991;52.430;10.586;2022-07-23T11:38:07;37.30;22.60
38183;DHT22;23991;52.430;10.586;2022-07-23T11:40:34;37.00;22.50
38183;DHT22;23991;52.430;10.586;2022-07-23T11:43:05;37.00;23.00
38183;DHT22;23991;52.430;10.586;2022-07-23T11:45:38;36.60;23.20
38183;DHT22;23991;52.430;10.586;2022-07-23T11:48:06;35.60;24.20
38183;DHT22;23991;52.430;10.586;2022-07-23T11:50:32;35.30;24.40
38183;DHT22;23991;52.430;10.586;2022-07-23T11:52:58;35.00;24.80
38183;DHT22;23991;52.430;10.586;2022-07-23T11:55:24;34.30;25.80
38183;DHT22;23991;52.430;10.586;2022-07-23T11:57:51;34.60;25.50
38183;DHT22;23991;52.430;10.586;2022-07-23T12:00:20;35.10;25.40
38183;DHT22;23991;52.430;10.586;2022-07-23T12:02:48;35.40;24.80
38183;DHT22;23991;52.430;10.586;2022-07-23T12:05:25;35.70;24.60
38183;DHT22;23991;52.430;10.586;2022-07-23T12:07:55;36.50;23.40
38183;DHT22;23991;52.430;10.586;2022-07-23T12:10:25;37.00;22.50
38183;DHT22;23991;52.430;10.586;2022-07-23T12:13:12;36.80;22.70
38183;DHT22;23991;52.430;10.586;2022-07-23T12:15:46;37.10;23.00
38183;DHT22;23991;52.430;10.586;2022-07-23T12:18:15;37.10;22.90
38183;DHT22;23991;52.430;10.586;2022-07-23T12:20:53;36.90;22.50
38183;DHT22;23991;52.430;10.586;2022-07-23T12:23:20;37.10;22.80
38183;DHT22;23991;52.430;10.586;2022-07-23T12:25:48;37.30;22.10
38183;DHT22;23991;52.430;10.586;2022-07-23T12:28:16;37.60;21.90
38183;DHT22;23991;52.430;10.586;2022-07-23T12:30:49;37.60;22.30
38183;DHT22;23991;52.430;10.586;2022-07-23T12:33:32;37.60;21.70
38183;DHT22;23991;52.430;10.586;2022-07-23T12:36:03;37.30;22.00
38183;DHT22;23991;52.430;10.586;2022-07-23T12:38:40;36.90;22.40
38183;DHT22;23991;52.430;10.586;2022-07-23T12:41:06;36.90;22.50
38183;DHT22;23991;52.430;10.586;2022-07-23T12:43:44;37.00;22.40
38183;DHT22;23991;52.430;10.586;2022-07-23T12:46:18;37.20;22.30
38183;DHT22;23991;52.430;10.586;2022-07-23T12:51:23;38.00;21.40
38183;DHT22;23991;52.430;10.586;2022-07-23T12:53:54;38.10;21.10
38183;DHT22;23991;52.430;10.586;2022-07-23T12:56:29;38.10;21.40
38183;DHT22;23991;52.430;10.586;2022-07-23T12:59:15;37.80;21.30
38183;DHT22;23991;52.430;10.586;2022-07-23T13:01:43;37.60;21.90
38183;DHT22;23991;52.430;10.586;2022-07-23T13:04:11;37.70;21.40
38183;DHT22;23991;52.430;10.586;2022-07-23T13:09:06;37.80;21.20
38183;DHT22;23991;52.430;10.586;2022-07-23T13:11:32;37.20;21.50
38183;DHT22;23991;52.430;10.586;2022-07-23T13:13:59;37.20;22.00
38183;DHT22;23991;52.430;10.586;2022-07-23T13:16:29;37.10;21.80
38183;DHT22;23991;52.430;10.586;2022-07-23T13:18:56;37.10;22.10
38183;DHT22;23991;52.430;10.586;2022-07-23T13:21:25;37.20;21.80
38183;DHT22;23991;52.430;10.586;2022-07-23T13:23:51;37.40;21.60
38183;DHT22;23991;52.430;10.586;2022-07-23T13:26:17;37.40;22.00
38183;DHT22;23991;52.430;10.586;2022-07-23T13:28:43;37.20;21.90
38183;DHT22;23991;52.430;10.586;2022-07-23T13:31:08;37.20;21.60
38183;DHT22;23991;52.430;10.586;2022-07-23T13:33:35;37.60;22.10
38183;DHT22;23991;52.430;10.586;2022-07-23T13:36:01;37.60;21.40
38183;DHT22;23991;52.430;10.586;2022-07-23T13:38:26;37.60;21.10
38183;DHT22;23991;52.430;10.586;2022-07-23T13:40:53;37.40;21.30
38183;DHT22;23991;52.430;10.586;2022-07-23T13:43:21;37.40;21.30
38183;DHT22;23991;52.430;10.586;2022-07-23T13:45:48;37.00;22.00
38183;DHT22;23991;52.430;10.586;2022-07-23T13:48:14;37.10;21.70
38183;DHT22;23991;52.430;10.586;2022-07-23T13:50:41;37.40;21.50
38183;DHT22;23991;52.430;10.586;2022-07-23T13:53:11;37.90;20.70
38183;DHT22;23991;52.430;10.586;2022-07-23T13:55:37;38.10;20.80
38183;DHT22;23991;52.430;10.586;2022-07-23T13:58:05;38.40;20.70
38183;DHT22;23991;52.430;10.586;2022-07-23T14:00:33;38.40;20.00
38183;DHT22;23991;52.430;10.586;2022-07-23T14:02:59;38.20;20.40
38183;DHT22;23991;52.430;10.586;2022-07-23T14:05:25;38.10;20.30
38183;DHT22;23991;52.430;10.586;2022-07-23T14:07:51;38.10;20.20
38183;DHT22;23991;52.430;10.586;2022-07-23T14:10:19;38.00;19.80
38183;DHT22;23991;52.430;10.586;2022-07-23T14:12:46;37.60;20.50
38183;DHT22;23991;52.430;10.586;2022-07-23T14:15:13;37.90;20.20
38183;DHT22;23991;52.430;10.586;2022-07-23T14:17:42;38.10;20.10
38183;DHT22;23991;52.430;10.586;2022-07-23T14:20:09;38.10;20.50
38183;DHT22;23991;52.430;10.586;2022-07-23T14:22:35;37.90;20.80
38183;DHT22;23991;52.430;10.586;2022-07-23T14:25:01;37.90;20.50
38183;DHT22;23991;52.430;10.586;2022-07-23T14:27:28;37.90;20.30
38183;DHT22;23991;52.430;10.586;2022-07-23T14:29:54;37.60;20.80
38183;DHT22;23991;52.430;10.586;2022-07-23T14:32:20;37.40;20.70
38183;DHT22;23991;52.430;10.586;2022-07-23T14:34:46;37.20;20.90
38183;DHT22;23991;52.430;10.586;2022-07-23T14:37:14;36.90;21.40
38183;DHT22;23991;52.430;10.586;2022-07-23T14:39:41;36.90;21.50
38183;DHT22;23991;52.430;10.586;2022-07-23T14:42:07;36.80;21.10
38183;DHT22;23991;52.430;10.586;2022-07-23T14:44:33;36.70;21.50
38183;DHT22;23991;52.430;10.586;2022-07-23T14:46:59;36.70;21.50
38183;DHT22;23991;52.430;10.586;2022-07-23T14:49:26;36.80;21.10
38183;DHT22;23991;52.430;10.586;2022-07-23T14:51:51;36.80;21.30
38183;DHT22;23991;52.430;10.586;2022-07-23T14:54:17;36.80;21.80
38183;DHT22;23991;52.430;10.586;2022-07-23T14:56:43;36.60;21.80
38183;DHT22;23991;52.430;10.586;2022-07-23T14:59:09;36.50;22.30
38183;DHT22;23991;52.430;10.586;2022-07-23T15:01:35;36.60;21.90
38183;DHT22;23991;52.430;10.586;2022-07-23T15:04:01;36.60;22.30
38183;DHT22;23991;52.430;10.586;2022-07-23T15:06:28;36.60;22.00
38183;DHT22;23991;52.430;10.586;2022-07-23T15:08:54;36.50;22.20
38183;DHT22;23991;52.430;10.586;2022-07-23T15:11:19;36.60;22.20
38183;DHT22;23991;52.430;10.586;2022-07-23T15:13:45;36.70;22.40
38183;DHT22;23991;52.430;10.586;2022-07-23T15:16:11;36.40;22.30
38183;DHT22;23991;52.430;10.586;2022-07-23T15:18:37;36.10;22.90
38183;DHT22;23991;52.430;10.586;2022-07-23T15:21:03;36.00;23.00
38183;DHT22;23991;52.430;10.586;2022-07-23T15:23:28;35.90;22.80
38183;DHT22;23991;52.430;10.586;2022-07-23T15:25:55;36.10;22.90
38183;DHT22;23991;52.430;10.586;2022-07-23T15:28:21;36.00;23.00
38183;DHT22;23991;52.430;10.586;2022-07-23T15:30:48;36.10;23.10
38183;DHT22;23991;52.430;10.586;2022-07-23T15:33:13;36.10;23.20
38183;DHT22;23991;52.430;10.586;2022-07-23T15:35:39;35.90;22.70
38183;DHT22;23991;52.430;10.586;2022-07-23T15:38:04;36.00;22.80
38183;DHT22;23991;52.430;10.586;2022-07-23T15:40:30;35.80;22.90
38183;DHT22;23991;52.430;10.586;2022-07-23T15:42:55;35.40;23.20
38183;DHT22;23991;52.430;10.586;2022-07-23T15:45:21;35.10;23.50
38183;DHT22;23991;52.430;10.586;2022-07-23T15:47:48;35.00;23.60
38183;DHT22;23991;52.430;10.586;2022-07-23T15:50:14;35.10;23.70
38183;DHT22;23991;52.430;10.586;2022-07-23T15:52:40;34.90;23.70